Accueil
METAR-TAF:

METAR-TAF

Aéroports :

Aéroport de l'île de Chios

Chios, Grèce

latitude: 38-20N, longitude: 026-08E, altitude: 5 m

Observation

Le bulletin a été fait il y a 25 minutes, à 12:50 UTC
Vent 15 kt de nord/nord-est avec des rafales jusqu'à 25 kt
Température 10°C
Humidité 62%
Pression 1033 hPa
Visibilité 10 km ou plus
Nuages fragmentés à une hauteur de 2000 ft

METAR: LGHI 201250Z 02015G25KT 9999 BKN020 10/03 Q1033

Heure: 15:15 (13:15 UTC)

Prévision

Le bulletin a été fait il y a 2 heures et 15 minutes, à 11:00 UTC
Prévision valable du 20 à 12 UTC au 20 à 21 UTC
Vent 20 kt de nord/nord-est
Visibilité 10 km ou plus
Nuages épars à une hauteur de 2000 ft
Temporairement
du 20 à 12 UTC au 20 à 21 UTC
Vent 20 kt de nord avec des rafales jusqu'à 30 kt
Nuages fragmentés à une hauteur de 2500 ft

TAF: LGHI 201100Z 2012/2021 02020KT 9999 SCT020 TEMPO 2012/2021 01020G30KT BKN025

Observations et prévisions météorologiques de plus de 4000 aéroports (messages METAR et TAF).

Les stations disponibles sont représentées par des disques jaunes et rouges sur la carte.

Passer la souris dessus pour voir le nom de la station.

Cliquer dessus pour voir les observations et prévisions météorologiques.

Pour changer de carte: cliquez sur les boutons verts avec une croix noire pour zoomer, sur le bouton vert avec un tiret pour effectuer un zoom arrière, ou sur les flèches vertes pour les cartes adjacentes.


METAR-TAF: